sensor_id;sensor_type;location;lat;lon;timestamp;temperature;humidity
15298;DHT22;7750;48.796;9.026;2023-08-21T09:28:48;34.10;55.90
15298;DHT22;7750;48.796;9.026;2023-08-21T09:49:27;34.20;53.90
15298;DHT22;7750;48.796;9.026;2023-08-21T09:54:34;34.20;54.00
15298;DHT22;7750;48.796;9.026;2023-08-21T09:59:36;34.20;54.50
15298;DHT22;7750;48.796;9.026;2023-08-21T10:04:39;34.20;54.30
15298;DHT22;7750;48.796;9.026;2023-08-21T10:09:41;34.30;54.20
15298;DHT22;7750;48.796;9.026;2023-08-21T10:14:42;34.30;54.40
15298;DHT22;7750;48.796;9.026;2023-08-21T10:19:55;34.30;53.30
15298;DHT22;7750;48.796;9.026;2023-08-21T10:25:06;34.40;52.00
15298;DHT22;7750;48.796;9.026;2023-08-21T11:27:28;36.90;50.50
15298;DHT22;7750;48.796;9.026;2023-08-21T11:32:29;37.00;50.20
15298;DHT22;7750;48.796;9.026;2023-08-21T11:37:30;37.10;49.90
15298;DHT22;7750;48.796;9.026;2023-08-21T11:42:32;37.30;49.90
15298;DHT22;7750;48.796;9.026;2023-08-21T11:47:34;37.40;49.40
15298;DHT22;7750;48.796;9.026;2023-08-21T11:52:37;37.40;48.70
15298;DHT22;7750;48.796;9.026;2023-08-21T11:57:52;37.40;48.80
15298;DHT22;7750;48.796;9.026;2023-08-21T12:24:25;37.50;47.70
15298;DHT22;7750;48.796;9.026;2023-08-21T12:29:26;37.30;48.00
15298;DHT22;7750;48.796;9.026;2023-08-21T12:34:36;37.40;48.20
15298;DHT22;7750;48.796;9.026;2023-08-21T12:44:39;37.60;48.20
15298;DHT22;7750;48.796;9.026;2023-08-21T12:49:42;37.70;47.70
15298;DHT22;7750;48.796;9.026;2023-08-21T12:54:47;37.80;47.70
15298;DHT22;7750;48.796;9.026;2023-08-21T13:53:16;37.70;47.80
15298;DHT22;7750;48.796;9.026;2023-08-21T13:58:17;38.00;47.00
15298;DHT22;7750;48.796;9.026;2023-08-21T14:03:18;38.20;46.60
15298;DHT22;7750;48.796;9.026;2023-08-21T14:08:20;38.20;46.30
15298;DHT22;7750;48.796;9.026;2023-08-21T14:13:22;38.10;46.50
15298;DHT22;7750;48.796;9.026;2023-08-21T14:18:23;38.10;46.60
15298;DHT22;7750;48.796;9.026;2023-08-21T14:28:34;38.30;46.60
15298;DHT22;7750;48.796;9.026;2023-08-21T14:33:36;38.50;46.50
15298;DHT22;7750;48.796;9.026;2023-08-21T17:16:46;36.80;46.40
15298;DHT22;7750;48.796;9.026;2023-08-21T17:21:48;36.70;46.60
15298;DHT22;7750;48.796;9.026;2023-08-21T17:26:51;36.50;46.80
15298;DHT22;7750;48.796;9.026;2023-08-21T17:31:54;36.30;46.90
15298;DHT22;7750;48.796;9.026;2023-08-21T17:36:56;36.30;47.10
15298;DHT22;7750;48.796;9.026;2023-08-21T17:41:57;36.10;47.10
15298;DHT22;7750;48.796;9.026;2023-08-21T17:46:57;35.90;47.30
15298;DHT22;7750;48.796;9.026;2023-08-21T17:51:59;35.80;47.80
15298;DHT22;7750;48.796;9.026;2023-08-21T17:57:01;35.70;47.90
15298;DHT22;7750;48.796;9.026;2023-08-21T18:02:03;35.50;47.80
15298;DHT22;7750;48.796;9.026;2023-08-21T18:07:05;35.30;48.30
15298;DHT22;7750;48.796;9.026;2023-08-21T18:12:07;35.20;48.80
15298;DHT22;7750;48.796;9.026;2023-08-21T18:17:10;35.10;49.30
15298;DHT22;7750;48.796;9.026;2023-08-21T18:22:20;35.00;49.70
15298;DHT22;7750;48.796;9.026;2023-08-21T18:27:26;34.80;49.60
15298;DHT22;7750;48.796;9.026;2023-08-21T18:32:27;34.70;49.80
15298;DHT22;7750;48.796;9.026;2023-08-21T18:37:28;34.50;49.80
15298;DHT22;7750;48.796;9.026;2023-08-21T18:42:30;34.30;50.00
